KSDY/SDY METAR and TAF weather

Enter ICAO airport designator
Station Type Date Time Source
KSDY METAR 2019/12/16 05:56 UTC NOAA

KSDY 160556Z AUTO 00000KT 10SM OVC110 M10/M12 A3000 RMK AO2 SLP556 T11001122 11072 21100 53008 FZRANO


Station Type Date Time Source
KSDY Decoded METAR 2019/12/16 05:56 UTC NOAA

Sidney-Richland, MT, United States (KSDY) 47-42N 104-12W
Dec 16, 2019 - 12:56 AM EST / 2019.12.16 0556 UTC
Wind: Calm:0
Visibility: 10 mile(s):0
Sky conditions: overcast
Temperature: 14.0 F (-10.0 C)
Dew Point: 10.0 F (-12.2 C)
Relative Humidity: 83%
Pressure (altimeter): 30 in. Hg (1015 hPa)
Pressure tendency: 0.02 inches (0.8 hPa) higher than three hours ago
ob: KSDY 160556Z AUTO 00000KT 10SM OVC110 M10/M12 A3000 RMK AO2 SLP556 T11001122 11072 21100 53008 FZRANO
cycle: 6

Station Type Date Time Source
KSDY TAF 2019/12/16 06:22 UTC NOAA

TAF KSDY 160520Z 1606/1706 VRB04KT P6SM BKN050
FM161200 VRB05KT 4SM BR BKN010
FM161500 VRB06KT P6SM SCT100

Example: see airport list